sensor_id;sensor_type;location;lat;lon;timestamp;pressure;altitude;pressure_sealevel;temperature;humidity
59055;BME280;44845;51.444;7.460;2023-02-17T00:00:22;100170.56;;;8.96;82.92
59055;BME280;44845;51.444;7.460;2023-02-17T00:02:47;100164.41;;;8.87;82.68
59055;BME280;44845;51.444;7.460;2023-02-17T00:05:12;100156.63;;;8.97;82.84
59055;BME280;44845;51.444;7.460;2023-02-17T00:07:38;100158.34;;;8.92;83.40
59055;BME280;44845;51.444;7.460;2023-02-17T00:10:04;100155.72;;;8.95;83.22
59055;BME280;44845;51.444;7.460;2023-02-17T00:12:29;100149.63;;;8.97;83.45
59055;BME280;44845;51.444;7.460;2023-02-17T00:14:55;100155.72;;;8.95;83.58
59055;BME280;44845;51.444;7.460;2023-02-17T00:17:20;100147.00;;;8.96;83.81
59055;BME280;44845;51.444;7.460;2023-02-17T00:19:45;100152.25;;;9.02;83.31
59055;BME280;44845;51.444;7.460;2023-02-17T00:22:11;100153.13;;;9.03;83.46
59055;BME280;44845;51.444;7.460;2023-02-17T00:24:38;100143.56;;;9.06;83.14
59055;BME280;44845;51.444;7.460;2023-02-17T00:27:04;100139.19;;;9.04;83.76
59055;BME280;44845;51.444;7.460;2023-02-17T00:29:31;100141.78;;;9.02;83.71
59055;BME280;44845;51.444;7.460;2023-02-17T00:31:56;100139.19;;;9.05;83.34
59055;BME280;44845;51.444;7.460;2023-02-17T00:34:22;100129.59;;;9.07;83.29
59055;BME280;44845;51.444;7.460;2023-02-17T00:36:48;100129.59;;;9.10;83.27
59055;BME280;44845;51.444;7.460;2023-02-17T00:39:14;100119.16;;;9.14;83.37
59055;BME280;44845;51.444;7.460;2023-02-17T00:41:40;100119.16;;;9.14;83.36
59055;BME280;44845;51.444;7.460;2023-02-17T00:44:06;100121.78;;;9.14;83.54
59055;BME280;44845;51.444;7.460;2023-02-17T00:46:31;100118.28;;;9.15;83.30
59055;BME280;44845;51.444;7.460;2023-02-17T00:48:57;100113.91;;;9.10;83.38
59055;BME280;44845;51.444;7.460;2023-02-17T00:51:23;100106.94;;;9.16;83.53
59055;BME280;44845;51.444;7.460;2023-02-17T00:53:49;100103.47;;;9.17;83.32
59055;BME280;44845;51.444;7.460;2023-02-17T00:56:14;100111.31;;;9.14;83.51
59055;BME280;44845;51.444;7.460;2023-02-17T00:58:40;100112.19;;;9.14;83.95
59055;BME280;44845;51.444;7.460;2023-02-17T01:01:06;100109.53;;;9.03;84.27
59055;BME280;44845;51.444;7.460;2023-02-17T01:03:32;100100.81;;;9.04;84.04
59055;BME280;44845;51.444;7.460;2023-02-17T01:05:57;100106.91;;;9.09;84.05
59055;BME280;44845;51.444;7.460;2023-02-17T01:08:23;100102.59;;;9.16;83.88
59055;BME280;44845;51.444;7.460;2023-02-17T01:10:49;100097.34;;;9.18;83.73
59055;BME280;44845;51.444;7.460;2023-02-17T01:13:16;100088.63;;;9.20;83.46
59055;BME280;44845;51.444;7.460;2023-02-17T01:15:45;100096.47;;;9.22;83.80
59055;BME280;44845;51.444;7.460;2023-02-17T01:18:11;100093.00;;;9.24;83.42
59055;BME280;44845;51.444;7.460;2023-02-17T01:20:37;100099.97;;;9.27;83.75
59055;BME280;44845;51.444;7.460;2023-02-17T01:23:03;100089.50;;;9.21;83.89
59055;BME280;44845;51.444;7.460;2023-02-17T01:25:29;100080.81;;;9.28;83.70
59055;BME280;44845;51.444;7.460;2023-02-17T01:27:54;100081.63;;;9.19;84.48
59055;BME280;44845;51.444;7.460;2023-02-17T01:30:19;100072.94;;;9.22;83.96
59055;BME280;44845;51.444;7.460;2023-02-17T01:32:45;100080.78;;;9.16;84.72
59055;BME280;44845;51.444;7.460;2023-02-17T01:35:10;100080.78;;;9.22;84.20
59055;BME280;44845;51.444;7.460;2023-02-17T01:37:36;100079.91;;;9.24;84.29
59055;BME280;44845;51.444;7.460;2023-02-17T01:40:01;100068.59;;;9.21;84.24
59055;BME280;44845;51.444;7.460;2023-02-17T01:42:27;100060.75;;;9.24;83.94
59055;BME280;44845;51.444;7.460;2023-02-17T01:47:49;100054.63;;;9.25;84.40
59055;BME280;44845;51.444;7.460;2023-02-17T01:50:20;100045.91;;;9.26;84.28
59055;BME280;44845;51.444;7.460;2023-02-17T01:52:46;100047.66;;;9.24;84.43
59055;BME280;44845;51.444;7.460;2023-02-17T01:55:15;100038.91;;;9.25;84.51
59055;BME280;44845;51.444;7.460;2023-02-17T01:57:43;100041.53;;;9.25;84.49
59055;BME280;44845;51.444;7.460;2023-02-17T02:00:11;100044.16;;;9.34;84.00
59055;BME280;44845;51.444;7.460;2023-02-17T02:02:39;100042.41;;;9.37;83.70
59055;BME280;44845;51.444;7.460;2023-02-17T02:05:06;100049.41;;;9.41;83.43
59055;BME280;44845;51.444;7.460;2023-02-17T02:07:34;100038.91;;;9.34;83.97
59055;BME280;44845;51.444;7.460;2023-02-17T02:10:00;100046.78;;;9.34;83.94
59055;BME280;44845;51.444;7.460;2023-02-17T02:12:30;100043.28;;;9.37;83.77
59055;BME280;44845;51.444;7.460;2023-02-17T02:14:58;100032.81;;;9.32;83.92
59055;BME280;44845;51.444;7.460;2023-02-17T02:17:50;100038.91;;;9.34;84.28
59055;BME280;44845;51.444;7.460;2023-02-17T02:23:33;100033.69;;;9.41;84.58
59055;BME280;44845;51.444;7.460;2023-02-17T02:29:38;100028.44;;;9.34;84.42
59055;BME280;44845;51.444;7.460;2023-02-17T02:34:56;100027.59;;;9.40;84.13
59055;BME280;44845;51.444;7.460;2023-02-17T02:37:51;100033.69;;;9.38;84.37
59055;BME280;44845;51.444;7.460;2023-02-17T02:40:19;100032.81;;;9.34;84.53
59055;BME280;44845;51.444;7.460;2023-02-17T02:42:47;100029.31;;;9.37;84.57
59055;BME280;44845;51.444;7.460;2023-02-17T02:45:12;100029.31;;;9.30;84.91
59055;BME280;44845;51.444;7.460;2023-02-17T02:47:47;100029.31;;;9.30;84.82
59055;BME280;44845;51.444;7.460;2023-02-17T02:51:04;100024.09;;;9.27;84.63
59055;BME280;44845;51.444;7.460;2023-02-17T02:53:44;100007.50;;;9.34;84.43
59055;BME280;44845;51.444;7.460;2023-02-17T02:56:49;100011.00;;;9.40;84.01
59055;BME280;44845;51.444;7.460;2023-02-17T02:59:33;100001.41;;;9.39;84.12
59055;BME280;44845;51.444;7.460;2023-02-17T03:02:07;100001.41;;;9.40;84.11
59055;BME280;44845;51.444;7.460;2023-02-17T03:04:43;99997.91;;;9.48;83.86
59055;BME280;44845;51.444;7.460;2023-02-17T03:07:18;99983.09;;;9.39;83.89
59055;BME280;44845;51.444;7.460;2023-02-17T03:09:50;99987.44;;;9.46;83.64
59055;BME280;44845;51.444;7.460;2023-02-17T03:12:17;99983.06;;;9.42;83.94
59055;BME280;44845;51.444;7.460;2023-02-17T03:14:43;99982.22;;;9.40;83.87
59055;BME280;44845;51.444;7.460;2023-02-17T03:17:09;99986.56;;;9.47;83.49
59055;BME280;44845;51.444;7.460;2023-02-17T03:19:34;99984.81;;;9.43;83.60
59055;BME280;44845;51.444;7.460;2023-02-17T03:24:25;99972.59;;;9.51;83.10
59055;BME280;44845;51.444;7.460;2023-02-17T03:26:50;99993.56;;;9.48;83.07
59055;BME280;44845;51.444;7.460;2023-02-17T03:29:16;99983.97;;;9.41;83.51
59055;BME280;44845;51.444;7.460;2023-02-17T03:31:41;99984.81;;;9.52;82.82
59055;BME280;44845;51.444;7.460;2023-02-17T03:34:07;99992.66;;;9.52;82.87
59055;BME280;44845;51.444;7.460;2023-02-17T03:36:32;99988.31;;;9.50;82.99
59055;BME280;44845;51.444;7.460;2023-02-17T03:38:57;99999.66;;;9.44;83.03
59055;BME280;44845;51.444;7.460;2023-02-17T03:41:23;99988.31;;;9.40;83.22
59055;BME280;44845;51.444;7.460;2023-02-17T03:43:48;99987.44;;;9.48;83.09
59055;BME280;44845;51.444;7.460;2023-02-17T03:46:15;99986.56;;;9.44;83.32
59055;BME280;44845;51.444;7.460;2023-02-17T03:48:41;99988.31;;;9.48;82.78
59055;BME280;44845;51.444;7.460;2023-02-17T03:53:40;99983.06;;;9.46;82.81
59055;BME280;44845;51.444;7.460;2023-02-17T03:56:06;99986.59;;;9.41;82.96
59055;BME280;44845;51.444;7.460;2023-02-17T03:58:31;99987.44;;;9.44;82.90
59055;BME280;44845;51.444;7.460;2023-02-17T04:00:57;99997.91;;;9.46;82.70
59055;BME280;44845;51.444;7.460;2023-02-17T04:03:22;99999.66;;;9.58;82.39
59055;BME280;44845;51.444;7.460;2023-02-17T04:05:47;99993.53;;;9.46;82.65
59055;BME280;44845;51.444;7.460;2023-02-17T04:08:13;100000.53;;;9.46;82.85
59055;BME280;44845;51.444;7.460;2023-02-17T04:10:38;100008.38;;;9.49;82.81
59055;BME280;44845;51.444;7.460;2023-02-17T04:13:03;99998.78;;;9.53;82.41
59055;BME280;44845;51.444;7.460;2023-02-17T04:15:29;100003.16;;;9.48;82.67
59055;BME280;44845;51.444;7.460;2023-02-17T04:17:54;100013.63;;;9.52;82.57
59055;BME280;44845;51.444;7.460;2023-02-17T04:20:20;100012.75;;;9.53;82.44
59055;BME280;44845;51.444;7.460;2023-02-17T04:22:45;100002.25;;;9.56;82.04
59055;BME280;44845;51.444;7.460;2023-02-17T04:25:11;100004.03;;;9.48;82.38
59055;BME280;44845;51.444;7.460;2023-02-17T04:27:36;100000.53;;;9.55;82.10
59055;BME280;44845;51.444;7.460;2023-02-17T04:30:02;99997.03;;;9.50;82.29
59055;BME280;44845;51.444;7.460;2023-02-17T04:32:28;99994.44;;;9.49;82.44
59055;BME280;44845;51.444;7.460;2023-02-17T04:34:53;99995.28;;;9.52;82.26
59055;BME280;44845;51.444;7.460;2023-02-17T04:37:18;100004.00;;;9.57;82.45
59055;BME280;44845;51.444;7.460;2023-02-17T04:39:44;99997.03;;;9.63;81.80
59055;BME280;44845;51.444;7.460;2023-02-17T04:42:09;99990.91;;;9.62;81.72
59055;BME280;44845;51.444;7.460;2023-02-17T04:44:34;99970.84;;;9.60;81.76
59055;BME280;44845;51.444;7.460;2023-02-17T04:46:59;99976.09;;;9.53;81.94
59055;BME280;44845;51.444;7.460;2023-02-17T04:49:25;99974.31;;;9.58;81.83
59055;BME280;44845;51.444;7.460;2023-02-17T04:51:50;99987.44;;;9.60;81.54
59055;BME280;44845;51.444;7.460;2023-02-17T04:54:15;99979.59;;;9.55;81.86
59055;BME280;44845;51.444;7.460;2023-02-17T04:56:41;99976.94;;;9.62;81.34
59055;BME280;44845;51.444;7.460;2023-02-17T04:59:06;99967.34;;;9.51;81.42
59055;BME280;44845;51.444;7.460;2023-02-17T05:01:32;99971.69;;;9.65;81.35
59055;BME280;44845;51.444;7.460;2023-02-17T05:03:57;99955.13;;;9.60;81.62
59055;BME280;44845;51.444;7.460;2023-02-17T05:06:23;99951.63;;;9.64;81.27
59055;BME280;44845;51.444;7.460;2023-02-17T05:08:48;99949.88;;;9.69;80.98
59055;BME280;44845;51.444;7.460;2023-02-17T05:11:15;99948.13;;;9.65;81.23
59055;BME280;44845;51.444;7.460;2023-02-17T05:13:40;99953.38;;;9.65;81.22
59055;BME280;44845;51.444;7.460;2023-02-17T05:16:06;99957.75;;;9.47;81.52
59055;BME280;44845;51.444;7.460;2023-02-17T05:18:31;99958.63;;;9.60;81.31
59055;BME280;44845;51.444;7.460;2023-02-17T05:20:56;99966.50;;;9.55;81.33
59055;BME280;44845;51.444;7.460;2023-02-17T05:23:22;99969.09;;;9.62;81.39
59055;BME280;44845;51.444;7.460;2023-02-17T05:25:47;99981.31;;;9.63;80.99
59055;BME280;44845;51.444;7.460;2023-02-17T05:28:13;99979.56;;;9.65;80.94
59055;BME280;44845;51.444;7.460;2023-02-17T05:30:38;99979.56;;;9.68;81.14
59055;BME280;44845;51.444;7.460;2023-02-17T05:33:03;99982.16;;;9.69;81.11
59055;BME280;44845;51.444;7.460;2023-02-17T05:35:29;99975.22;;;9.56;81.57
59055;BME280;44845;51.444;7.460;2023-02-17T05:37:54;99968.22;;;9.60;81.38
59055;BME280;44845;51.444;7.460;2023-02-17T05:40:19;99960.38;;;9.58;81.49
59055;BME280;44845;51.444;7.460;2023-02-17T05:42:45;99966.47;;;9.63;80.94
59055;BME280;44845;51.444;7.460;2023-02-17T05:45:10;99965.59;;;9.60;81.42
59055;BME280;44845;51.444;7.460;2023-02-17T05:47:35;99964.75;;;9.56;81.52
59055;BME280;44845;51.444;7.460;2023-02-17T05:50:02;99962.09;;;9.64;81.14
59055;BME280;44845;51.444;7.460;2023-02-17T05:52:27;99964.72;;;9.59;81.36
59055;BME280;44845;51.444;7.460;2023-02-17T05:54:52;99964.72;;;9.64;81.47
59055;BME280;44845;51.444;7.460;2023-02-17T05:57:18;99962.09;;;9.67;81.25
59055;BME280;44845;51.444;7.460;2023-02-17T05:59:43;99958.59;;;9.62;81.39
59055;BME280;44845;51.444;7.460;2023-02-17T06:02:08;99960.34;;;9.69;81.15
59055;BME280;44845;51.444;7.460;2023-02-17T06:04:34;99962.94;;;9.74;80.74
59055;BME280;44845;51.444;7.460;2023-02-17T06:06:59;99956.00;;;9.63;81.39
59055;BME280;44845;51.444;7.460;2023-02-17T06:09:24;99942.06;;;9.58;81.72
59055;BME280;44845;51.444;7.460;2023-02-17T06:11:50;99945.53;;;9.63;81.56
59055;BME280;44845;51.444;7.460;2023-02-17T06:14:16;99933.28;;;9.64;81.33
59055;BME280;44845;51.444;7.460;2023-02-17T06:16:41;99934.16;;;9.69;81.22
59055;BME280;44845;51.444;7.460;2023-02-17T06:19:06;99930.69;;;9.65;81.33
59055;BME280;44845;51.444;7.460;2023-02-17T06:21:32;99928.06;;;9.54;81.91
59055;BME280;44845;51.444;7.460;2023-02-17T06:23:57;99928.94;;;9.60;81.92
59055;BME280;44845;51.444;7.460;2023-02-17T06:26:22;99939.41;;;9.66;81.65
59055;BME280;44845;51.444;7.460;2023-02-17T06:28:48;99935.03;;;9.69;81.54
59055;BME280;44845;51.444;7.460;2023-02-17T06:31:13;99941.16;;;9.67;81.63
59055;BME280;44845;51.444;7.460;2023-02-17T06:33:39;99946.38;;;9.73;81.44
59055;BME280;44845;51.444;7.460;2023-02-17T06:36:04;99942.91;;;9.68;81.60
59055;BME280;44845;51.444;7.460;2023-02-17T06:38:30;99943.75;;;9.73;81.38
59055;BME280;44845;51.444;7.460;2023-02-17T06:40:55;99950.72;;;9.76;81.48
59055;BME280;44845;51.444;7.460;2023-02-17T06:43:21;99945.50;;;9.62;81.98
59055;BME280;44845;51.444;7.460;2023-02-17T06:45:46;99949.88;;;9.69;81.71
59055;BME280;44845;51.444;7.460;2023-02-17T06:48:11;99943.75;;;9.73;81.73
59055;BME280;44845;51.444;7.460;2023-02-17T06:50:37;99948.13;;;9.65;81.92
59055;BME280;44845;51.444;7.460;2023-02-17T06:53:03;99948.13;;;9.65;82.38
59055;BME280;44845;51.444;7.460;2023-02-17T06:55:28;99940.25;;;9.73;81.67
59055;BME280;44845;51.444;7.460;2023-02-17T06:57:54;99949.91;;;9.66;81.98
59055;BME280;44845;51.444;7.460;2023-02-17T07:00:20;99959.47;;;9.70;82.07
59055;BME280;44845;51.444;7.460;2023-02-17T07:02:46;99948.97;;;9.75;81.95
59055;BME280;44845;51.444;7.460;2023-02-17T07:05:11;99948.94;;;9.81;81.61
59055;BME280;44845;51.444;7.460;2023-02-17T07:07:36;99953.31;;;9.82;81.72
59055;BME280;44845;51.444;7.460;2023-02-17T07:10:02;99936.72;;;9.82;81.60
59055;BME280;44845;51.444;7.460;2023-02-17T07:12:28;99955.06;;;9.85;81.67
59055;BME280;44845;51.444;7.460;2023-02-17T07:14:54;99955.97;;;9.77;82.31
59055;BME280;44845;51.444;7.460;2023-02-17T07:17:19;99945.50;;;9.71;82.87
59055;BME280;44845;51.444;7.460;2023-02-17T07:19:44;99958.59;;;9.71;83.13
59055;BME280;44845;51.444;7.460;2023-02-17T07:22:09;99949.88;;;9.72;83.60
59055;BME280;44845;51.444;7.460;2023-02-17T07:24:35;99962.06;;;9.76;83.29
59055;BME280;44845;51.444;7.460;2023-02-17T07:27:00;99959.47;;;9.78;83.35
59055;BME280;44845;51.444;7.460;2023-02-17T07:29:26;99964.72;;;9.73;83.86
59055;BME280;44845;51.444;7.460;2023-02-17T07:31:51;99966.44;;;9.79;83.53
59055;BME280;44845;51.444;7.460;2023-02-17T07:34:17;99968.16;;;9.86;83.33
59055;BME280;44845;51.444;7.460;2023-02-17T07:36:42;99956.78;;;9.92;82.94
59055;BME280;44845;51.444;7.460;2023-02-17T07:39:09;99959.41;;;9.92;83.20
59055;BME280;44845;51.444;7.460;2023-02-17T07:41:34;99957.69;;;9.85;83.86
59055;BME280;44845;51.444;7.460;2023-02-17T07:43:59;99957.69;;;9.77;84.21
59055;BME280;44845;51.444;7.460;2023-02-17T07:46:25;99971.66;;;9.87;83.90
59055;BME280;44845;51.444;7.460;2023-02-17T07:48:51;99958.56;;;9.87;84.08
59055;BME280;44845;51.444;7.460;2023-02-17T07:51:18;99952.47;;;9.80;84.15
59055;BME280;44845;51.444;7.460;2023-02-17T07:53:44;99956.81;;;9.83;84.08
59055;BME280;44845;51.444;7.460;2023-02-17T07:56:11;99953.31;;;9.84;84.38
59055;BME280;44845;51.444;7.460;2023-02-17T07:58:39;99949.81;;;9.85;84.12
59055;BME280;44845;51.444;7.460;2023-02-17T08:01:09;99955.97;;;9.80;84.45
59055;BME280;44845;51.444;7.460;2023-02-17T08:03:35;99955.06;;;9.85;84.34
59055;BME280;44845;51.444;7.460;2023-02-17T08:06:01;99941.16;;;9.73;84.72
59055;BME280;44845;51.444;7.460;2023-02-17T08:08:26;99936.72;;;9.82;84.48
59055;BME280;44845;51.444;7.460;2023-02-17T08:11:15;99941.09;;;9.79;84.55
59055;BME280;44845;51.444;7.460;2023-02-17T08:14:00;99935.88;;;9.79;84.44
59055;BME280;44845;51.444;7.460;2023-02-17T08:16:26;99941.06;;;9.86;84.18
59055;BME280;44845;51.444;7.460;2023-02-17T08:18:52;99946.31;;;9.92;84.10
59055;BME280;44845;51.444;7.460;2023-02-17T08:21:19;99940.19;;;9.91;83.98
59055;BME280;44845;51.444;7.460;2023-02-17T08:23:44;99938.44;;;9.95;83.71
59055;BME280;44845;51.444;7.460;2023-02-17T08:26:09;99935.84;;;9.92;83.99
59055;BME280;44845;51.444;7.460;2023-02-17T08:28:35;99934.97;;;9.87;84.22
59055;BME280;44845;51.444;7.460;2023-02-17T08:31:00;99935.81;;;9.94;83.85
59055;BME280;44845;51.444;7.460;2023-02-17T08:33:26;99931.41;;;10.03;83.57
59055;BME280;44845;51.444;7.460;2023-02-17T08:35:52;99941.03;;;10.05;83.56
59055;BME280;44845;51.444;7.460;2023-02-17T08:38:17;99933.22;;;9.95;83.79
59055;BME280;44845;51.444;7.460;2023-02-17T08:40:42;99933.16;;;10.05;83.46
59055;BME280;44845;51.444;7.460;2023-02-17T08:43:08;99933.19;;;9.90;83.74
59055;BME280;44845;51.444;7.460;2023-02-17T08:45:34;99925.34;;;9.94;84.03
59055;BME280;44845;51.444;7.460;2023-02-17T08:48:01;99930.59;;;9.92;84.06
59055;BME280;44845;51.444;7.460;2023-02-17T08:50:27;99930.53;;;10.05;83.56
59055;BME280;44845;51.444;7.460;2023-02-17T08:52:52;99918.31;;;10.03;83.58
59055;BME280;44845;51.444;7.460;2023-02-17T08:55:17;99922.53;;;10.33;86.02
59055;BME280;44845;51.444;7.460;2023-02-17T08:57:44;99922.09;;;10.99;89.60
59055;BME280;44845;51.444;7.460;2023-02-17T09:00:10;99921.88;;;11.25;85.83
59055;BME280;44845;51.444;7.460;2023-02-17T09:02:35;99920.78;;;11.50;80.67
59055;BME280;44845;51.444;7.460;2023-02-17T09:05:03;99929.66;;;11.33;78.74
59055;BME280;44845;51.444;7.460;2023-02-17T09:07:28;99924.63;;;11.11;79.12
59055;BME280;44845;51.444;7.460;2023-02-17T09:09:54;99935.16;;;11.08;79.47
59055;BME280;44845;51.444;7.460;2023-02-17T09:12:19;99949.25;;;10.98;79.86
59055;BME280;44845;51.444;7.460;2023-02-17T09:14:44;99945.88;;;10.80;80.34
59055;BME280;44845;51.444;7.460;2023-02-17T09:17:10;99931.81;;;10.87;80.36
59055;BME280;44845;51.444;7.460;2023-02-17T09:19:37;99949.38;;;10.77;80.76
59055;BME280;44845;51.444;7.460;2023-02-17T09:22:02;99945.03;;;10.73;80.69
59055;BME280;44845;51.444;7.460;2023-02-17T09:24:28;99947.63;;;10.78;80.64
59055;BME280;44845;51.444;7.460;2023-02-17T09:26:53;99933.66;;;10.79;80.92
59055;BME280;44845;51.444;7.460;2023-02-17T09:29:19;99937.13;;;10.81;80.50
59055;BME280;44845;51.444;7.460;2023-02-17T09:31:44;99933.69;;;10.73;80.87
59055;BME280;44845;51.444;7.460;2023-02-17T09:34:10;99948.53;;;10.74;80.66
59055;BME280;44845;51.444;7.460;2023-02-17T09:36:40;99930.22;;;10.67;80.85
59055;BME280;44845;51.444;7.460;2023-02-17T09:39:06;99938.94;;;10.69;80.89
59055;BME280;44845;51.444;7.460;2023-02-17T09:41:48;99932.78;;;10.75;80.75
59055;BME280;44845;51.444;7.460;2023-02-17T09:44:31;99939.81;;;10.67;81.21
59055;BME280;44845;51.444;7.460;2023-02-17T09:47:06;99936.25;;;10.77;80.63
59055;BME280;44845;51.444;7.460;2023-02-17T09:49:55;99942.44;;;10.72;81.16
59055;BME280;44845;51.444;7.460;2023-02-17T09:55:06;99933.56;;;10.88;80.83
59055;BME280;44845;51.444;7.460;2023-02-17T09:57:41;99924.72;;;10.99;80.48
59055;BME280;44845;51.444;7.460;2023-02-17T10:00:15;99919.44;;;11.05;79.98
59055;BME280;44845;51.444;7.460;2023-02-17T10:03:27;99932.63;;;10.94;80.22
59055;BME280;44845;51.444;7.460;2023-02-17T10:05:38;99924.78;;;10.96;80.05
59055;BME280;44845;51.444;7.460;2023-02-17T10:08:09;99924.72;;;11.03;79.72
59055;BME280;44845;51.444;7.460;2023-02-17T10:10:53;99928.09;;;11.13;79.83
59055;BME280;44845;51.444;7.460;2023-02-17T10:13:24;99938.59;;;11.13;79.67
59055;BME280;44845;51.444;7.460;2023-02-17T10:15:53;99924.56;;;11.18;79.89
59055;BME280;44845;51.444;7.460;2023-02-17T10:18:30;99937.63;;;11.25;79.80
59055;BME280;44845;51.444;7.460;2023-02-17T10:21:01;99929.84;;;11.14;79.98
59055;BME280;44845;51.444;7.460;2023-02-17T10:23:29;99936.81;;;11.19;79.38
59055;BME280;44845;51.444;7.460;2023-02-17T10:26:14;99956.00;;;11.24;79.58
59055;BME280;44845;51.444;7.460;2023-02-17T10:28:50;99961.22;;;11.30;79.39
59055;BME280;44845;51.444;7.460;2023-02-17T10:31:27;99975.25;;;11.26;79.88
59055;BME280;44845;51.444;7.460;2023-02-17T10:44:19;99968.97;;;11.41;78.74
59055;BME280;44845;51.444;7.460;2023-02-17T11:34:57;99898.81;;;11.56;78.13
59055;BME280;44845;51.444;7.460;2023-02-17T11:37:27;99906.63;;;11.62;77.78
59055;BME280;44845;51.444;7.460;2023-02-17T11:39:56;99923.09;;;11.75;77.52
59055;BME280;44845;51.444;7.460;2023-02-17T11:42:26;99900.28;;;11.82;77.16
59055;BME280;44845;51.444;7.460;2023-02-17T11:44:54;99913.28;;;11.90;77.50
59055;BME280;44845;51.444;7.460;2023-02-17T11:52:55;99902.59;;;12.05;75.85
59055;BME280;44845;51.444;7.460;2023-02-17T12:01:03;99902.50;;;12.15;76.23
59055;BME280;44845;51.444;7.460;2023-02-17T12:06:23;99904.34;;;12.07;75.83
59055;BME280;44845;51.444;7.460;2023-02-17T12:09:06;99905.97;;;12.17;75.19
59055;BME280;44845;51.444;7.460;2023-02-17T12:11:52;99898.94;;;12.19;75.33
59055;BME280;44845;51.444;7.460;2023-02-17T12:20:01;99895.53;;;12.11;75.45
59055;BME280;44845;51.444;7.460;2023-02-17T12:25:30;99890.25;;;12.11;75.50
59055;BME280;44845;51.444;7.460;2023-02-17T12:33:31;99893.78;;;12.13;75.30
59055;BME280;44845;51.444;7.460;2023-02-17T12:36:08;99888.47;;;12.16;74.94
59055;BME280;44845;51.444;7.460;2023-02-17T12:38:38;99872.69;;;12.16;75.39
59055;BME280;44845;51.444;7.460;2023-02-17T12:44:21;99881.47;;;12.15;75.56
59055;BME280;44845;51.444;7.460;2023-02-17T12:47:01;99887.66;;;12.08;75.92
59055;BME280;44845;51.444;7.460;2023-02-17T12:49:34;99878.84;;;12.15;75.78
59055;BME280;44845;51.444;7.460;2023-02-17T12:52:50;99879.75;;;12.14;76.17
59055;BME280;44845;51.444;7.460;2023-02-17T12:55:19;99862.22;;;12.13;75.91
59055;BME280;44845;51.444;7.460;2023-02-17T12:57:57;99881.69;;;11.96;76.58
59055;BME280;44845;51.444;7.460;2023-02-17T13:00:37;99872.84;;;12.03;76.62
59055;BME280;44845;51.444;7.460;2023-02-17T13:03:04;99886.84;;;12.02;76.46
59055;BME280;44845;51.444;7.460;2023-02-17T13:08:19;99892.06;;;12.05;76.52
59055;BME280;44845;51.444;7.460;2023-02-17T13:10:46;99883.47;;;11.94;77.12
59055;BME280;44845;51.444;7.460;2023-02-17T13:13:25;99906.22;;;11.95;77.02
59055;BME280;44845;51.444;7.460;2023-02-17T13:16:11;99902.72;;;11.96;77.07
59055;BME280;44845;51.444;7.460;2023-02-17T13:18:42;99895.69;;;11.98;77.00
59055;BME280;44845;51.444;7.460;2023-02-17T13:23:57;99900.84;;;12.04;77.15
59055;BME280;44845;51.444;7.460;2023-02-17T13:26:26;99894.72;;;12.05;76.69
59055;BME280;44845;51.444;7.460;2023-02-17T13:29:07;99907.84;;;12.05;76.98
59055;BME280;44845;51.444;7.460;2023-02-17T13:31:46;99902.59;;;12.05;77.22
59055;BME280;44845;51.444;7.460;2023-02-17T13:34:23;99903.47;;;12.06;77.28
59055;BME280;44845;51.444;7.460;2023-02-17T13:36:49;99899.94;;;12.09;77.08
59055;BME280;44845;51.444;7.460;2023-02-17T13:41:54;99909.53;;;12.10;76.99
59055;BME280;44845;51.444;7.460;2023-02-17T13:44:39;99913.94;;;12.08;77.60
59055;BME280;44845;51.444;7.460;2023-02-17T13:47:12;99917.47;;;12.08;77.38
59055;BME280;44845;51.444;7.460;2023-02-17T13:49:38;99922.81;;;12.00;77.50
59055;BME280;44845;51.444;7.460;2023-02-17T13:52:15;99926.34;;;11.98;77.57
59055;BME280;44845;51.444;7.460;2023-02-17T13:54:51;99920.13;;;12.05;77.53
59055;BME280;44845;51.444;7.460;2023-02-17T13:57:24;99916.59;;;12.04;77.79
59055;BME280;44845;51.444;7.460;2023-02-17T13:59:50;99921.09;;;11.99;77.61
59055;BME280;44845;51.444;7.460;2023-02-17T14:02:18;99923.63;;;12.05;77.52
59055;BME280;44845;51.444;7.460;2023-02-17T14:04:44;99926.28;;;12.02;77.37
59055;BME280;44845;51.444;7.460;2023-02-17T14:07:10;99931.53;;;12.02;77.49
59055;BME280;44845;51.444;7.460;2023-02-17T14:09:36;99935.91;;;12.03;77.22
59055;BME280;44845;51.444;7.460;2023-02-17T14:12:04;99942.09;;;12.01;77.42
59055;BME280;44845;51.444;7.460;2023-02-17T14:14:32;99944.84;;;11.88;77.82
59055;BME280;44845;51.444;7.460;2023-02-17T14:19:52;99961.41;;;11.97;77.81
59055;BME280;44845;51.444;7.460;2023-02-17T14:22:29;99975.38;;;12.00;77.93
59055;BME280;44845;51.444;7.460;2023-02-17T14:25:05;99972.78;;;11.97;78.26
59055;BME280;44845;51.444;7.460;2023-02-17T14:27:45;99974.50;;;12.00;78.95
59055;BME280;44845;51.444;7.460;2023-02-17T14:33:23;99986.72;;;12.02;79.71
59055;BME280;44845;51.444;7.460;2023-02-17T14:35:53;99996.44;;;11.99;79.91
59055;BME280;44845;51.444;7.460;2023-02-17T14:38:26;99995.56;;;11.98;79.68
59055;BME280;44845;51.444;7.460;2023-02-17T14:40:51;100002.69;;;11.85;79.88
59055;BME280;44845;51.444;7.460;2023-02-17T14:43:21;99984.38;;;11.79;80.00
59055;BME280;44845;51.444;7.460;2023-02-17T14:45:48;99982.69;;;11.70;80.24
59055;BME280;44845;51.444;7.460;2023-02-17T14:48:13;99993.34;;;11.57;80.00
59055;BME280;44845;51.444;7.460;2023-02-17T14:50:39;99996.84;;;11.59;80.07
59055;BME280;44845;51.444;7.460;2023-02-17T14:53:32;100007.34;;;11.59;80.12
59055;BME280;44845;51.444;7.460;2023-02-17T14:55:58;100004.75;;;11.53;80.30
59055;BME280;44845;51.444;7.460;2023-02-17T14:58:25;100004.75;;;11.53;80.65
59055;BME280;44845;51.444;7.460;2023-02-17T15:00:51;100011.75;;;11.56;81.34
59055;BME280;44845;51.444;7.460;2023-02-17T15:03:16;100011.75;;;11.57;81.40
59055;BME280;44845;51.444;7.460;2023-02-17T15:05:42;99999.41;;;11.63;81.62
59055;BME280;44845;51.444;7.460;2023-02-17T15:08:12;100000.34;;;11.58;81.68
59055;BME280;44845;51.444;7.460;2023-02-17T15:10:39;100003.91;;;11.53;82.25
59055;BME280;44845;51.444;7.460;2023-02-17T15:13:05;100013.47;;;11.58;82.31
59055;BME280;44845;51.444;7.460;2023-02-17T15:15:30;100029.41;;;11.40;83.24